createdAt,value
2023-03-11T00:00:49.121Z,-6.18
2023-03-11T00:03:19.916Z,-6.11
2023-03-11T00:05:49.289Z,-6.15
2023-03-11T00:08:28.140Z,-6.08
2023-03-11T00:11:02.655Z,-6.23
2023-03-11T00:13:32.471Z,-6.09
2023-03-11T00:16:03.061Z,-6.12
2023-03-11T00:18:37.610Z,-6.07
2023-03-11T00:21:07.534Z,-6.13
2023-03-11T00:23:38.594Z,-6.32
2023-03-11T00:26:07.738Z,-6.07
2023-03-11T00:28:36.925Z,-6.06
2023-03-11T00:31:06.811Z,-6.05
2023-03-11T00:33:35.969Z,-6.05
2023-03-11T00:36:06.571Z,-6.02
2023-03-11T00:38:35.812Z,-6.15
2023-03-11T00:41:06.925Z,-6.05
2023-03-11T00:46:16.681Z,-6.11
2023-03-11T00:48:45.750Z,-6.32
2023-03-11T00:51:17.147Z,-6.25
2023-03-11T00:53:46.829Z,-6.41
2023-03-11T00:56:18.259Z,-6.33
2023-03-11T00:58:47.521Z,-6.32
2023-03-11T01:03:56.501Z,-6.24
2023-03-11T01:06:30.127Z,-6.21
2023-03-11T01:11:48.400Z,-6.11
2023-03-11T01:14:17.655Z,-6.06
2023-03-11T01:16:46.979Z,-6.07
2023-03-11T01:19:18.318Z,-6.03
2023-03-11T01:21:47.464Z,-6.04
2023-03-11T01:24:16.650Z,-6.17
2023-03-11T01:29:27.641Z,-6.34
2023-03-11T01:31:56.712Z,-6.30
2023-03-11T01:34:31.297Z,-6.36
2023-03-11T01:37:01.186Z,-6.42
2023-03-11T01:39:30.414Z,-6.41
2023-03-11T01:42:07.235Z,-6.42
2023-03-11T01:44:41.449Z,-6.48
2023-03-11T01:47:41.820Z,-6.52
2023-03-11T01:50:15.242Z,-6.56
2023-03-11T01:52:46.396Z,-6.67
2023-03-11T01:55:19.096Z,-6.56
2023-03-11T01:57:51.836Z,-6.51
2023-03-11T02:00:21.770Z,-6.47
2023-03-11T02:02:54.068Z,-6.43
2023-03-11T02:05:25.643Z,-6.43
2023-03-11T02:08:00.442Z,-6.47
2023-03-11T02:10:34.970Z,-6.45
2023-03-11T02:13:07.079Z,-6.47
2023-03-11T02:15:38.349Z,-6.61
2023-03-11T02:18:18.159Z,-6.61
2023-03-11T02:20:54.741Z,-6.65
2023-03-11T02:23:29.086Z,-6.75
2023-03-11T02:26:06.337Z,-6.65
2023-03-11T02:28:44.032Z,-6.60
2023-03-11T02:31:14.815Z,-6.62
2023-03-11T02:36:36.411Z,-6.73
2023-03-11T02:39:07.536Z,-6.73
2023-03-11T02:41:40.321Z,-6.80
2023-03-11T02:44:12.455Z,-6.79
2023-03-11T02:46:43.221Z,-6.77
2023-03-11T02:49:14.511Z,-6.81
2023-03-11T02:51:43.676Z,-6.73
2023-03-11T02:54:12.883Z,-6.70
2023-03-11T02:56:48.211Z,-6.83
2023-03-11T02:59:19.397Z,-6.75
2023-03-11T03:01:54.754Z,-6.65
2023-03-11T03:04:29.747Z,-6.71
2023-03-11T03:07:04.333Z,-6.56
2023-03-11T03:09:34.088Z,-6.59
2023-03-11T03:12:03.723Z,-6.55
2023-03-11T03:14:36.814Z,-6.45
2023-03-11T03:17:06.373Z,-6.42
2023-03-11T03:19:35.821Z,-6.47
2023-03-11T03:22:05.431Z,-6.59
2023-03-11T03:24:35.540Z,-6.45
2023-03-11T03:27:04.997Z,-6.69
2023-03-11T03:29:36.163Z,-6.55
2023-03-11T03:32:10.410Z,-6.56
2023-03-11T03:34:39.691Z,-6.57
2023-03-11T03:37:09.093Z,-6.63
2023-03-11T03:39:38.728Z,-6.67
2023-03-11T03:42:09.382Z,-6.83
2023-03-11T03:44:44.105Z,-7.15
2023-03-11T03:47:18.773Z,-7.28
2023-03-11T03:49:48.361Z,-7.28
2023-03-11T03:52:17.583Z,-7.26
2023-03-11T03:54:51.975Z,-7.44
2023-03-11T03:57:21.122Z,-7.24
2023-03-11T03:59:52.975Z,-7.33
2023-03-11T04:02:22.390Z,-7.25
2023-03-11T04:04:52.821Z,-7.18
2023-03-11T04:07:27.513Z,-7.34
2023-03-11T04:09:56.858Z,-7.22
2023-03-11T04:12:26.134Z,-7.22
2023-03-11T04:14:57.455Z,-7.37
2023-03-11T04:17:26.906Z,-7.05
2023-03-11T04:19:57.798Z,-7.09
2023-03-11T04:22:27.484Z,-7.02
2023-03-11T04:24:56.631Z,-6.95
2023-03-11T04:27:33.916Z,-6.91
2023-03-11T04:30:08.657Z,-6.82
2023-03-11T04:32:48.734Z,-6.77
2023-03-11T04:35:23.117Z,-6.78
2023-03-11T04:37:58.467Z,-6.74
2023-03-11T04:40:28.964Z,-6.62
2023-03-11T04:42:58.357Z,-6.51
2023-03-11T04:45:36.382Z,-6.48
2023-03-11T04:48:06.644Z,-6.48
2023-03-11T04:50:36.554Z,-6.55
2023-03-11T04:53:11.138Z,-6.29
2023-03-11T04:55:41.142Z,-6.41
2023-03-11T04:58:10.727Z,-6.22
2023-03-11T05:00:43.637Z,-6.10
2023-03-11T05:03:20.268Z,-6.08
2023-03-11T05:08:24.648Z,-5.97
2023-03-11T05:10:54.691Z,-5.83
2023-03-11T05:13:30.126Z,-5.77
2023-03-11T05:16:01.700Z,-5.90
2023-03-11T05:18:32.113Z,-5.80
2023-03-11T05:21:01.335Z,-5.77
2023-03-11T05:23:33.723Z,-5.94
2023-03-11T05:26:03.754Z,-5.88
2023-03-11T05:28:34.666Z,-5.80
2023-03-11T05:31:10.487Z,-5.74
2023-03-11T05:33:41.343Z,-5.69
2023-03-11T05:36:14.023Z,-5.93
2023-03-11T05:38:46.233Z,-6.25
2023-03-11T05:41:17.708Z,-6.01
2023-03-11T05:43:52.071Z,-5.73
2023-03-11T05:46:23.550Z,-5.60
2023-03-11T05:48:52.944Z,-5.76
2023-03-11T05:51:22.299Z,-5.76
2023-03-11T05:53:51.647Z,-5.87
2023-03-11T05:56:34.103Z,-5.88
2023-03-11T05:59:03.411Z,-5.82
2023-03-11T06:01:39.276Z,-5.73
2023-03-11T06:04:08.908Z,-5.61
2023-03-11T06:06:38.497Z,-5.52
2023-03-11T06:09:07.773Z,-5.40
2023-03-11T06:11:37.238Z,-5.36
2023-03-11T06:14:15.263Z,-5.32
2023-03-11T06:16:48.843Z,-5.28
2023-03-11T06:19:18.386Z,-5.22
2023-03-11T06:21:50.860Z,-5.25
2023-03-11T06:24:20.832Z,-5.25
2023-03-11T06:26:53.900Z,-5.30
2023-03-11T06:29:34.727Z,-5.24
2023-03-11T06:32:06.130Z,-5.19
2023-03-11T06:34:35.436Z,-5.05
2023-03-11T06:37:10.702Z,-4.92
2023-03-11T06:39:42.078Z,-4.97
2023-03-11T06:42:14.583Z,-5.15
2023-03-11T06:44:45.075Z,-4.98
2023-03-11T06:47:16.833Z,-4.89
2023-03-11T06:49:46.251Z,-4.86
2023-03-11T06:52:15.380Z,-4.93
2023-03-11T06:54:44.913Z,-4.99
2023-03-11T06:57:20.438Z,-5.13
2023-03-11T06:59:51.696Z,-5.00
2023-03-11T07:02:23.864Z,-4.84
2023-03-11T07:04:53.279Z,-4.76
2023-03-11T07:07:22.977Z,-4.65
2023-03-11T07:09:58.393Z,-4.55
2023-03-11T07:12:27.839Z,-4.48
2023-03-11T07:15:14.166Z,-4.31
2023-03-11T07:17:48.762Z,-4.09
2023-03-11T07:20:26.142Z,-4.34
2023-03-11T07:22:55.513Z,-3.91
2023-03-11T07:25:24.655Z,-3.83
2023-03-11T07:28:06.004Z,-3.69
2023-03-11T07:30:44.046Z,-3.79
2023-03-11T07:33:21.323Z,-3.67
2023-03-11T07:35:50.667Z,-3.54
2023-03-11T07:38:21.046Z,-3.75
2023-03-11T07:40:59.347Z,-3.42
2023-03-11T07:43:33.976Z,-3.38
2023-03-11T07:46:08.495Z,-3.35
2023-03-11T07:48:43.897Z,-3.38
2023-03-11T07:51:15.337Z,-3.37
2023-03-11T07:53:44.980Z,-3.64
2023-03-11T07:58:52.329Z,-3.78
2023-03-11T08:01:26.427Z,-3.84
2023-03-11T08:04:02.942Z,-4.04
2023-03-11T08:06:34.750Z,-4.10
2023-03-11T08:09:06.434Z,-3.95
2023-03-11T08:11:35.974Z,-4.00
2023-03-11T08:14:05.820Z,-4.04
2023-03-11T08:16:35.601Z,-4.14
2023-03-11T08:19:06.729Z,-4.39
2023-03-11T08:21:36.522Z,-4.16
2023-03-11T08:24:06.954Z,-4.12
2023-03-11T08:26:42.472Z,-4.12
2023-03-11T08:29:11.949Z,-4.01
2023-03-11T08:31:41.257Z,-3.97
2023-03-11T08:34:13.456Z,-3.82
2023-03-11T08:36:43.290Z,-3.73
2023-03-11T08:39:12.817Z,-3.77
2023-03-11T08:41:47.160Z,-3.65
2023-03-11T08:44:16.272Z,-3.60
2023-03-11T08:46:45.685Z,-3.57
2023-03-11T08:49:16.886Z,-3.51
2023-03-11T08:51:46.107Z,-3.34
2023-03-11T08:54:17.327Z,-3.18
2023-03-11T08:56:47.489Z,-3.22
2023-03-11T08:59:21.870Z,-2.97
2023-03-11T09:01:51.582Z,-2.92
2023-03-11T09:06:57.478Z,-2.99
2023-03-11T09:09:29.621Z,-3.07
2023-03-11T09:12:03.972Z,-3.21
2023-03-11T09:14:33.068Z,-3.38
2023-03-11T09:17:02.277Z,-3.47
2023-03-11T09:19:38.633Z,-3.37
2023-03-11T09:22:09.364Z,-3.39
2023-03-11T09:24:40.936Z,-3.37
2023-03-11T09:27:12.690Z,-3.41
2023-03-11T09:29:42.530Z,-3.43
2023-03-11T09:32:14.714Z,-3.42
2023-03-11T09:34:45.941Z,-3.40
2023-03-11T09:37:15.059Z,-3.41
2023-03-11T09:39:45.448Z,-3.40
2023-03-11T09:42:27.264Z,-3.41
2023-03-11T09:45:05.338Z,-3.45
2023-03-11T09:47:42.239Z,-3.55
2023-03-11T09:50:16.846Z,-3.57
2023-03-11T09:52:53.230Z,-3.78
2023-03-11T09:55:39.679Z,-3.71
2023-03-11T09:58:44.205Z,-3.76
2023-03-11T10:01:24.513Z,-3.81
2023-03-11T10:04:01.793Z,-3.89
2023-03-11T10:06:33.425Z,-4.07
2023-03-11T10:09:09.630Z,-4.11
2023-03-11T10:11:58.394Z,-4.10
2023-03-11T10:14:42.502Z,-4.10
2023-03-11T10:17:22.723Z,-4.13
2023-03-11T10:19:57.323Z,-4.17
2023-03-11T10:22:35.226Z,-4.40
2023-03-11T10:25:13.614Z,-4.24
2023-03-11T10:27:47.738Z,-4.24
2023-03-11T10:30:25.409Z,-4.16
2023-03-11T10:32:58.729Z,-4.11
2023-03-11T10:38:24.125Z,-4.06
2023-03-11T10:40:54.028Z,-4.01
2023-03-11T10:43:28.824Z,-4.04
2023-03-11T10:45:58.144Z,-4.00
2023-03-11T10:48:27.965Z,-4.07
2023-03-11T10:51:03.768Z,-3.97
2023-03-11T10:53:45.457Z,-4.06
2023-03-11T10:56:32.018Z,-3.85
2023-03-11T10:59:02.304Z,-3.80
2023-03-11T11:01:32.039Z,-3.76
2023-03-11T11:04:25.761Z,-3.70
2023-03-11T11:06:56.250Z,-3.65
2023-03-11T11:09:30.671Z,-3.81
2023-03-11T11:12:12.201Z,-3.63
2023-03-11T11:14:49.684Z,-3.74
2023-03-11T11:17:21.210Z,-3.77
2023-03-11T11:19:54.099Z,-3.70
2023-03-11T11:22:25.143Z,-3.64
2023-03-11T11:24:58.525Z,-3.65
2023-03-11T11:27:35.503Z,-3.62
2023-03-11T11:30:18.459Z,-3.52
2023-03-11T11:32:47.969Z,-3.56
2023-03-11T11:35:24.489Z,-3.62
2023-03-11T11:37:56.317Z,-3.52
2023-03-11T11:40:33.664Z,-3.46
2023-03-11T11:43:13.507Z,-3.41
2023-03-11T11:45:45.664Z,-3.43
2023-03-11T11:48:25.081Z,-3.48
2023-03-11T11:50:55.772Z,-3.55
2023-03-11T11:53:34.608Z,-3.55
2023-03-11T11:56:06.087Z,-3.55
2023-03-11T11:58:36.823Z,-3.54
2023-03-11T12:01:15.986Z,-3.50
2023-03-11T12:04:14.073Z,-3.69
2023-03-11T12:06:49.630Z,-3.54
2023-03-11T12:09:28.093Z,-3.46
2023-03-11T12:12:05.918Z,-3.41
2023-03-11T12:14:50.013Z,-3.50
2023-03-11T12:17:23.143Z,-3.49
2023-03-11T12:20:13.260Z,-3.54
2023-03-11T12:23:15.921Z,-3.72
2023-03-11T12:26:06.747Z,-3.61
2023-03-11T12:28:45.246Z,-3.61
2023-03-11T12:31:20.835Z,-3.57
2023-03-11T12:33:52.747Z,-3.93
2023-03-11T12:36:28.840Z,-3.49
2023-03-11T12:38:59.136Z,-3.50
2023-03-11T12:41:39.749Z,-3.53
2023-03-11T12:44:26.884Z,-3.49
2023-03-11T12:52:57.639Z,-3.78
2023-03-11T12:55:36.144Z,-4.00
2023-03-11T12:58:46.343Z,-3.79
2023-03-11T13:01:27.240Z,-3.78
2023-03-11T13:04:17.209Z,-3.73
2023-03-11T13:07:15.470Z,-3.84
2023-03-11T13:12:43.627Z,-3.53
2023-03-11T13:15:36.237Z,-3.46
2023-03-11T13:18:17.053Z,-3.51
2023-03-11T13:21:00.452Z,-3.64
2023-03-11T13:23:40.047Z,-3.52
2023-03-11T13:26:39.647Z,-3.44
2023-03-11T13:29:31.272Z,-3.41
2023-03-11T13:32:18.567Z,-3.41
2023-03-11T13:35:02.563Z,-3.54
2023-03-11T13:37:42.205Z,-3.49
2023-03-11T13:40:21.899Z,-3.42
2023-03-11T13:42:56.132Z,-3.41
2023-03-11T13:45:30.857Z,-3.42
2023-03-11T13:48:09.810Z,-3.39
2023-03-11T13:50:43.882Z,-3.35
2023-03-11T13:53:26.313Z,-3.34
2023-03-11T13:55:55.528Z,-3.37
2023-03-11T14:01:08.727Z,-3.28
2023-03-11T14:03:45.410Z,-3.26
2023-03-11T14:06:21.142Z,-3.26
2023-03-11T14:08:55.972Z,-3.16
2023-03-11T14:11:28.921Z,-3.16
2023-03-11T14:14:29.849Z,-3.22
2023-03-11T14:17:01.126Z,-3.12
2023-03-11T14:19:30.410Z,-3.16
2023-03-11T14:21:59.722Z,-3.11
2023-03-11T14:24:31.661Z,-3.11
2023-03-11T14:27:01.980Z,-3.09
2023-03-11T14:29:37.566Z,-3.11
2023-03-11T14:32:29.537Z,-3.11
2023-03-11T14:35:04.356Z,-3.07
2023-03-11T14:37:36.008Z,-3.16
2023-03-11T14:40:07.203Z,-3.14
2023-03-11T14:42:38.566Z,-3.06
2023-03-11T14:45:21.651Z,-2.98
2023-03-11T14:47:53.919Z,-2.96
2023-03-11T14:50:26.072Z,-2.97
2023-03-11T14:53:03.057Z,-2.96
2023-03-11T14:55:39.893Z,-3.00
2023-03-11T14:58:15.877Z,-2.94
2023-03-11T15:00:52.072Z,-2.95
2023-03-11T15:06:05.846Z,-2.96
2023-03-11T15:08:38.860Z,-2.96
2023-03-11T15:11:24.943Z,-3.00
2023-03-11T15:13:55.095Z,-3.02
2023-03-11T15:16:36.214Z,-3.02
2023-03-11T15:19:24.208Z,-3.03
2023-03-11T15:22:03.345Z,-3.04
2023-03-11T15:24:35.126Z,-3.06
2023-03-11T15:27:23.825Z,-3.03
2023-03-11T15:29:54.136Z,-3.06
2023-03-11T15:32:40.041Z,-3.02
2023-03-11T15:35:18.944Z,-3.03
2023-03-11T15:37:49.535Z,-3.09
2023-03-11T15:40:35.316Z,-3.07
2023-03-11T15:43:23.689Z,-3.12
2023-03-11T15:45:55.237Z,-3.12
2023-03-11T15:48:28.563Z,-3.13
2023-03-11T15:51:01.753Z,-3.26
2023-03-11T15:53:32.312Z,-3.08
2023-03-11T15:56:08.151Z,-3.14
2023-03-11T15:58:39.504Z,-3.11
2023-03-11T16:01:09.218Z,-3.06
2023-03-11T16:03:40.781Z,-3.14
2023-03-11T16:06:13.016Z,-3.00
2023-03-11T16:08:44.218Z,-2.97
2023-03-11T16:11:14.503Z,-2.99
2023-03-11T16:13:43.805Z,-3.16
2023-03-11T16:16:20.334Z,-2.89
2023-03-11T16:18:51.889Z,-3.02
2023-03-11T16:21:32.923Z,-2.86
2023-03-11T16:24:02.791Z,-2.82
2023-03-11T16:29:19.417Z,-2.77
2023-03-11T16:31:49.379Z,-2.76
2023-03-11T16:34:25.900Z,-2.84
2023-03-11T16:36:55.171Z,-2.84
2023-03-11T16:39:24.490Z,-2.70
2023-03-11T16:41:53.873Z,-2.68
2023-03-11T16:44:23.160Z,-2.71
2023-03-11T16:46:52.420Z,-2.65
2023-03-11T16:49:21.716Z,-2.61
2023-03-11T16:51:53.147Z,-2.59
2023-03-11T16:54:22.578Z,-2.59
2023-03-11T16:56:51.782Z,-2.59
2023-03-11T16:59:26.043Z,-2.96
2023-03-11T17:01:55.840Z,-2.53
2023-03-11T17:04:25.117Z,-2.53
2023-03-11T17:07:06.435Z,-2.51
2023-03-11T17:09:36.652Z,-2.52
2023-03-11T17:12:15.349Z,-2.52
2023-03-11T17:14:49.584Z,-2.52
2023-03-11T17:17:18.912Z,-2.49
2023-03-11T17:19:48.481Z,-2.52
2023-03-11T17:22:19.822Z,-2.45
2023-03-11T17:24:50.657Z,-2.48
2023-03-11T17:27:19.938Z,-2.53
2023-03-11T17:29:49.241Z,-2.56
2023-03-11T17:32:19.581Z,-2.52
2023-03-11T17:34:54.279Z,-2.49
2023-03-11T17:37:26.156Z,-2.47
2023-03-11T17:39:55.433Z,-2.42
2023-03-11T17:42:24.641Z,-2.44
2023-03-11T17:45:02.520Z,-2.58
2023-03-11T17:47:34.203Z,-2.50
2023-03-11T17:50:03.550Z,-2.53
2023-03-11T17:52:35.047Z,-2.67
2023-03-11T17:55:07.520Z,-2.47
2023-03-11T17:57:45.115Z,-2.45
2023-03-11T18:00:16.359Z,-2.41
2023-03-11T18:02:45.766Z,-2.39
2023-03-11T18:05:16.918Z,-2.37
2023-03-11T18:07:50.059Z,-2.29
2023-03-11T18:10:21.075Z,-2.51
2023-03-11T18:12:55.448Z,-2.54
2023-03-11T18:15:24.658Z,-2.26
2023-03-11T18:17:56.621Z,-2.15
2023-03-11T18:20:26.942Z,-2.11
2023-03-11T18:22:58.196Z,-2.05
2023-03-11T18:25:27.576Z,-2.04
2023-03-11T18:27:56.755Z,-1.90
2023-03-11T18:33:01.366Z,-1.80
2023-03-11T18:35:33.537Z,-1.77
2023-03-11T18:38:04.907Z,-1.70
2023-03-11T18:40:34.069Z,-1.66
2023-03-11T18:43:03.271Z,-1.65
2023-03-11T18:45:32.586Z,-1.61
2023-03-11T18:48:01.719Z,-1.58
2023-03-11T18:50:36.018Z,-1.61
2023-03-11T18:53:09.222Z,-1.56
2023-03-11T18:55:38.531Z,-1.53
2023-03-11T18:58:08.996Z,-1.51
2023-03-11T19:00:43.741Z,-1.50
2023-03-11T19:03:13.220Z,-1.47
2023-03-11T19:05:49.557Z,-1.48
2023-03-11T19:08:21.770Z,-1.46
2023-03-11T19:11:01.391Z,-1.46
2023-03-11T19:13:45.629Z,-1.51
2023-03-11T19:16:16.981Z,-1.54
2023-03-11T19:18:46.856Z,-1.51
2023-03-11T19:21:17.208Z,-1.58
2023-03-11T19:23:49.568Z,-1.53
2023-03-11T19:28:54.330Z,-1.57
2023-03-11T19:31:23.521Z,-1.57
2023-03-11T19:33:59.385Z,-1.79
2023-03-11T19:36:29.783Z,-1.43
2023-03-11T19:39:00.931Z,-1.46
2023-03-11T19:41:30.157Z,-1.43
2023-03-11T19:43:59.494Z,-1.43
2023-03-11T19:46:29.408Z,-1.39
2023-03-11T19:48:59.192Z,-1.57
2023-03-11T19:51:32.960Z,-1.53
2023-03-11T19:54:16.792Z,-1.39
2023-03-11T19:56:46.070Z,-1.37
2023-03-11T19:59:15.340Z,-1.37
2023-03-11T20:01:44.496Z,-1.37
2023-03-11T20:04:14.609Z,-1.31
2023-03-11T20:06:48.943Z,-1.30
2023-03-11T20:09:20.502Z,-1.62
2023-03-11T20:11:54.953Z,-1.29
2023-03-11T20:14:29.228Z,-1.31
2023-03-11T20:16:58.565Z,-1.24
2023-03-11T20:19:28.132Z,-1.32
2023-03-11T20:21:57.393Z,-1.20
2023-03-11T20:24:28.744Z,-1.15
2023-03-11T20:26:58.058Z,-1.17
2023-03-11T20:29:27.289Z,-1.12
2023-03-11T20:31:56.691Z,-1.10
2023-03-11T20:34:26.505Z,-1.08
2023-03-11T20:36:55.878Z,-1.11
2023-03-11T20:39:30.378Z,-1.10
2023-03-11T20:42:01.661Z,-1.03
2023-03-11T20:44:31.075Z,-1.01
2023-03-11T20:47:00.228Z,-1.04
2023-03-11T20:49:29.543Z,-1.04
2023-03-11T20:51:58.800Z,-1.08
2023-03-11T20:54:27.913Z,-1.05
2023-03-11T20:56:57.226Z,-1.06
2023-03-11T20:59:28.476Z,-1.03
2023-03-11T21:01:57.780Z,-0.97
2023-03-11T21:04:27.448Z,-0.98
2023-03-11T21:06:57.247Z,-1.04
2023-03-11T21:09:26.614Z,-0.86
2023-03-11T21:11:56.092Z,-0.91
2023-03-11T21:14:26.232Z,-0.85
2023-03-11T21:16:57.550Z,-0.88
2023-03-11T21:19:26.958Z,-0.76
2023-03-11T21:21:56.081Z,-1.04
2023-03-11T21:24:25.409Z,-0.80
2023-03-11T21:26:54.844Z,-0.80
2023-03-11T21:29:24.175Z,-0.81
2023-03-11T21:31:53.446Z,-0.74
2023-03-11T21:34:25.537Z,-0.76
2023-03-11T21:36:54.512Z,-0.75
2023-03-11T21:39:24.551Z,-0.72
2023-03-11T21:41:56.488Z,-0.78
2023-03-11T21:44:25.352Z,-0.66
2023-03-11T21:46:54.562Z,-0.74
2023-03-11T21:49:31.056Z,-0.77
2023-03-11T21:52:02.178Z,-0.72
2023-03-11T21:57:11.225Z,-0.60
2023-03-11T21:59:40.477Z,-0.74
2023-03-11T22:02:16.225Z,-0.60
2023-03-11T22:04:52.723Z,-0.56
2023-03-11T22:07:27.085Z,-0.52
2023-03-11T22:09:56.671Z,-0.50
2023-03-11T22:12:26.189Z,-0.47
2023-03-11T22:14:55.530Z,-0.43
2023-03-11T22:17:25.091Z,-0.41
2023-03-11T22:19:56.394Z,-0.40
2023-03-11T22:22:25.574Z,-0.37
2023-03-11T22:24:54.747Z,-0.37
2023-03-11T22:27:29.518Z,-0.41
2023-03-11T22:29:58.752Z,-0.33
2023-03-11T22:32:28.153Z,-0.33
2023-03-11T22:34:59.305Z,-0.27
2023-03-11T22:37:28.814Z,-0.27
2023-03-11T22:39:58.488Z,-0.27
2023-03-11T22:42:32.980Z,-0.30
2023-03-11T22:45:02.589Z,-0.23
2023-03-11T22:47:32.198Z,-0.28
2023-03-11T22:52:43.402Z,-0.12
2023-03-11T22:55:13.328Z,-0.09
2023-03-11T22:57:42.573Z,-0.05
2023-03-11T23:00:16.730Z,-0.02
2023-03-11T23:02:51.570Z,0.05
2023-03-11T23:05:23.191Z,0.07
2023-03-11T23:07:53.044Z,0.09
2023-03-11T23:10:22.716Z,0.10
2023-03-11T23:12:57.010Z,0.11
2023-03-11T23:15:25.987Z,-0.08
2023-03-11T23:17:55.098Z,0.17
2023-03-11T23:20:26.150Z,0.21
2023-03-11T23:22:55.408Z,0.18
2023-03-11T23:25:24.675Z,0.26
2023-03-11T23:27:53.945Z,0.25
2023-03-11T23:30:23.737Z,0.31
2023-03-11T23:32:52.980Z,0.32
2023-03-11T23:35:22.182Z,0.04
2023-03-11T23:37:53.450Z,0.36
2023-03-11T23:40:22.896Z,0.42
2023-03-11T23:42:52.342Z,0.46
2023-03-11T23:45:21.553Z,0.50
2023-03-11T23:47:51.108Z,0.54
2023-03-11T23:50:20.463Z,0.54
2023-03-11T23:52:49.727Z,0.46
2023-03-11T23:55:21.112Z,0.63
2023-03-11T23:57:50.383Z,0.68
